createdAt,value
2023-05-17T00:02:46.786Z,4.47
2023-05-17T00:07:51.751Z,3.83
2023-05-17T00:12:54.930Z,3.65
2023-05-17T00:17:58.417Z,4.03
2023-05-17T00:23:03.154Z,4.60
2023-05-17T00:28:06.467Z,4.78
2023-05-17T00:33:10.618Z,4.20
2023-05-17T00:38:15.139Z,4.55
2023-05-17T00:43:18.267Z,4.97
2023-05-17T00:48:25.461Z,4.55
2023-05-17T00:53:30.855Z,4.80
2023-05-17T00:58:34.374Z,5.90
2023-05-17T01:03:37.675Z,5.30
2023-05-17T01:08:42.366Z,4.63
2023-05-17T01:13:49.977Z,4.95
2023-05-17T01:18:57.710Z,5.18
2023-05-17T01:24:08.978Z,5.38
2023-05-17T01:29:15.466Z,5.53
2023-05-17T01:34:25.495Z,4.47
2023-05-17T01:39:28.772Z,5.50
2023-05-17T01:44:35.711Z,4.68
2023-05-17T01:49:40.943Z,5.28
2023-05-17T01:54:48.650Z,5.82
2023-05-17T01:59:53.808Z,5.28
2023-05-17T02:04:57.047Z,4.82
2023-05-17T02:10:00.257Z,5.72
2023-05-17T02:15:05.022Z,6.07
2023-05-17T02:20:09.121Z,6.00
2023-05-17T02:25:12.271Z,5.20
2023-05-17T02:30:18.508Z,6.22
2023-05-17T02:35:21.954Z,7.22
2023-05-17T02:40:27.335Z,5.97
2023-05-17T02:45:32.020Z,6.22
2023-05-17T02:50:35.227Z,7.05
2023-05-17T02:55:38.401Z,8.38
2023-05-17T03:00:45.558Z,6.53
2023-05-17T03:05:49.772Z,6.90
2023-05-17T03:10:53.549Z,7.20
2023-05-17T03:15:58.399Z,7.07
2023-05-17T03:21:02.545Z,7.68
2023-05-17T03:26:05.908Z,7.90
2023-05-17T03:31:19.004Z,7.70
2023-05-17T03:36:22.450Z,6.63
2023-05-17T03:41:25.773Z,7.43
2023-05-17T03:46:30.554Z,6.90
2023-05-17T03:51:34.743Z,6.68
2023-05-17T03:56:38.023Z,6.80
2023-05-17T04:01:43.686Z,5.85
2023-05-17T04:06:47.146Z,5.65
2023-05-17T04:11:50.333Z,6.10
2023-05-17T04:16:54.912Z,5.93
2023-05-17T04:21:58.101Z,5.28
2023-05-17T04:27:05.334Z,5.53
2023-05-17T04:32:10.300Z,6.03
2023-05-17T04:37:14.969Z,5.07
2023-05-17T04:42:19.094Z,6.82
2023-05-17T04:47:30.413Z,5.35
2023-05-17T04:52:34.120Z,5.53
2023-05-17T04:57:38.580Z,5.82
2023-05-17T05:02:44.774Z,6.70
2023-05-17T05:07:50.101Z,6.25
2023-05-17T05:12:54.020Z,8.27
2023-05-17T05:17:58.607Z,7.57
2023-05-17T05:23:03.907Z,8.13
2023-05-17T05:28:07.472Z,7.25
2023-05-17T05:33:15.138Z,7.90
2023-05-17T05:38:19.374Z,8.05
2023-05-17T05:43:22.647Z,7.55
2023-05-17T05:48:27.682Z,7.05
2023-05-17T05:53:31.046Z,7.45
2023-05-17T05:58:34.349Z,7.25
2023-05-17T06:03:40.596Z,5.97
2023-05-17T06:08:45.737Z,6.30
2023-05-17T06:13:48.873Z,4.35
2023-05-17T06:18:53.509Z,4.50
2023-05-17T06:23:56.733Z,3.58
2023-05-17T06:28:59.937Z,4.45
2023-05-17T06:34:04.678Z,5.25
2023-05-17T06:39:08.138Z,3.25
2023-05-17T06:44:11.879Z,2.90
2023-05-17T06:49:16.362Z,2.83
2023-05-17T06:54:20.592Z,3.25
2023-05-17T06:59:23.825Z,2.50
2023-05-17T07:04:28.886Z,5.20
2023-05-17T07:09:32.261Z,2.83
2023-05-17T07:14:35.692Z,2.47
2023-05-17T07:19:40.545Z,2.47
2023-05-17T07:24:43.764Z,2.25
2023-05-17T07:29:47.211Z,2.33
2023-05-17T07:34:51.718Z,2.55
2023-05-17T07:39:54.823Z,2.42
2023-05-17T07:44:58.007Z,2.80
2023-05-17T07:50:02.541Z,1.95
2023-05-17T07:55:06.080Z,2.00
2023-05-17T08:00:12.712Z,1.88
2023-05-17T08:05:17.465Z,1.95
2023-05-17T08:10:21.304Z,2.20
2023-05-17T08:15:24.633Z,1.70
2023-05-17T08:20:29.273Z,1.75
2023-05-17T08:25:32.589Z,2.17
2023-05-17T08:30:35.895Z,1.52
2023-05-17T08:35:40.754Z,1.98
2023-05-17T08:40:44.144Z,1.70
2023-05-17T08:45:47.543Z,1.48
2023-05-17T08:50:54.286Z,1.42
2023-05-17T08:56:00.485Z,1.20
2023-05-17T09:01:03.682Z,1.60
2023-05-17T09:06:10.054Z,1.30
2023-05-17T09:11:13.222Z,1.58
2023-05-17T09:16:17.656Z,1.38
2023-05-17T09:21:22.424Z,1.40
2023-05-17T09:26:25.906Z,1.30
2023-05-17T09:31:29.122Z,1.33
2023-05-17T09:36:33.802Z,1.90
2023-05-17T09:41:42.294Z,1.48
2023-05-17T09:46:47.284Z,1.27
2023-05-17T09:51:52.234Z,1.00
2023-05-17T09:56:56.140Z,1.25
2023-05-17T10:02:00.589Z,1.25
2023-05-17T10:07:05.609Z,1.13
2023-05-17T10:12:11.908Z,1.10
2023-05-17T10:17:15.415Z,1.30
2023-05-17T10:22:23.392Z,1.42
2023-05-17T10:27:27.186Z,1.38
2023-05-17T10:32:30.828Z,1.13
2023-05-17T10:37:35.762Z,0.85
2023-05-17T10:42:40.858Z,1.38
2023-05-17T10:47:46.084Z,1.50
2023-05-17T10:52:51.593Z,1.00
2023-05-17T10:58:16.092Z,1.38
2023-05-17T11:03:20.150Z,0.68
2023-05-17T11:08:24.629Z,1.08
2023-05-17T11:13:28.487Z,1.02
2023-05-17T11:18:46.894Z,0.70
2023-05-17T11:23:57.431Z,0.90
2023-05-17T11:29:01.476Z,1.27
2023-05-17T11:34:04.771Z,1.08
2023-05-17T11:39:13.151Z,1.73
2023-05-17T11:44:16.715Z,1.30
2023-05-17T11:49:34.375Z,1.42
2023-05-17T11:54:41.272Z,1.90
2023-05-17T11:59:44.465Z,1.95
2023-05-17T12:04:47.668Z,1.60
2023-05-17T12:09:52.554Z,1.90
2023-05-17T12:14:56.016Z,1.75
2023-05-17T12:20:08.153Z,1.23
2023-05-17T12:25:22.540Z,1.70
2023-05-17T12:30:25.972Z,1.50
2023-05-17T12:35:29.226Z,1.73
2023-05-17T12:40:33.945Z,1.70
2023-05-17T12:45:37.047Z,1.75
2023-05-17T12:50:44.471Z,1.15
2023-05-17T12:55:49.068Z,1.60
2023-05-17T13:00:59.180Z,2.10
2023-05-17T13:06:03.660Z,1.60
2023-05-17T13:11:08.908Z,2.08
2023-05-17T13:16:12.090Z,2.13
2023-05-17T13:21:15.327Z,2.42
2023-05-17T13:26:20.237Z,2.00
2023-05-17T13:31:23.434Z,1.63
2023-05-17T13:36:26.681Z,2.33
2023-05-17T13:41:31.261Z,1.80
2023-05-17T13:46:34.439Z,2.40
2023-05-17T13:51:39.594Z,1.60
2023-05-17T13:56:44.284Z,1.50
2023-05-17T14:01:47.781Z,2.85
2023-05-17T14:06:54.080Z,1.80
2023-05-17T14:12:01.145Z,1.70
2023-05-17T14:17:04.663Z,1.92
2023-05-17T14:22:08.889Z,2.10
2023-05-17T14:27:13.598Z,2.15
2023-05-17T14:32:16.758Z,1.95
2023-05-17T14:37:21.228Z,1.80
2023-05-17T14:42:27.277Z,1.90
2023-05-17T14:47:30.581Z,2.10
2023-05-17T14:52:34.121Z,2.00
2023-05-17T14:57:40.118Z,1.92
2023-05-17T15:02:43.473Z,2.25
2023-05-17T15:07:47.542Z,2.20
2023-05-17T15:12:52.449Z,2.03
2023-05-17T15:17:55.722Z,2.15
2023-05-17T15:22:58.958Z,2.10
2023-05-17T15:28:03.960Z,1.98
2023-05-17T15:33:07.567Z,2.17
2023-05-17T15:38:10.918Z,2.15
2023-05-17T15:43:15.488Z,1.92
2023-05-17T15:48:19.088Z,2.38
2023-05-17T15:53:22.224Z,1.65
2023-05-17T15:58:34.196Z,1.73
2023-05-17T16:03:37.789Z,1.83
2023-05-17T16:08:41.058Z,1.63
2023-05-17T16:13:45.664Z,1.65
2023-05-17T16:18:48.832Z,1.65
2023-05-17T16:23:52.202Z,1.80
2023-05-17T16:28:58.686Z,1.27
2023-05-17T16:34:01.938Z,2.03
2023-05-17T16:39:06.058Z,2.17
2023-05-17T16:44:11.691Z,2.33
2023-05-17T16:49:14.850Z,1.85
2023-05-17T16:54:18.024Z,2.00
2023-05-17T16:59:22.621Z,1.77
2023-05-17T17:04:26.094Z,2.28
2023-05-17T17:09:29.268Z,1.88
2023-05-17T17:14:33.934Z,2.25
2023-05-17T17:19:37.076Z,2.30
2023-05-17T17:24:40.319Z,2.20
2023-05-17T17:29:44.933Z,1.52
2023-05-17T17:34:48.043Z,2.83
2023-05-17T17:39:51.649Z,2.08
2023-05-17T17:44:56.150Z,2.25
2023-05-17T17:49:59.317Z,2.90
2023-05-17T17:55:02.431Z,1.77
2023-05-17T18:00:10.258Z,2.80
2023-05-17T18:05:18.542Z,2.78
2023-05-17T18:10:21.896Z,2.05
2023-05-17T18:15:26.592Z,2.60
2023-05-17T18:20:29.936Z,2.47
2023-05-17T18:25:33.294Z,2.20
2023-05-17T18:30:37.928Z,2.00
2023-05-17T18:35:41.058Z,1.80
2023-05-17T18:40:44.433Z,2.25
2023-05-17T18:45:49.157Z,2.22
2023-05-17T18:50:52.328Z,2.28
2023-05-17T18:55:55.632Z,2.00
2023-05-17T19:01:01.559Z,1.63
2023-05-17T19:06:04.922Z,1.88
2023-05-17T19:11:08.200Z,2.15
2023-05-17T19:16:12.742Z,2.08
2023-05-17T19:21:15.922Z,3.15
2023-05-17T19:26:19.127Z,2.15
2023-05-17T19:31:23.687Z,2.03
2023-05-17T19:36:26.916Z,2.50
2023-05-17T19:41:30.264Z,1.90
2023-05-17T19:46:34.836Z,2.50
2023-05-17T19:51:38.003Z,2.00
2023-05-17T19:56:41.194Z,2.15
2023-05-17T20:01:45.756Z,1.73
2023-05-17T20:06:48.939Z,2.83
2023-05-17T20:11:52.091Z,2.60
2023-05-17T20:16:56.740Z,1.70
2023-05-17T20:22:01.700Z,2.30
2023-05-17T20:27:04.962Z,1.67
2023-05-17T20:32:09.626Z,1.88
2023-05-17T20:37:12.869Z,1.90
2023-05-17T20:42:18.079Z,2.00
2023-05-17T20:47:22.894Z,1.98
2023-05-17T20:57:32.477Z,2.03
2023-05-17T21:02:37.141Z,1.50
2023-05-17T21:07:42.615Z,1.65
2023-05-17T21:12:45.926Z,2.38
2023-05-17T21:17:50.516Z,2.22
2023-05-17T21:22:53.759Z,2.25
2023-05-17T21:27:56.912Z,1.98
2023-05-17T21:33:01.467Z,2.05
2023-05-17T21:38:04.828Z,1.92
2023-05-17T21:43:09.766Z,2.05
2023-05-17T21:48:14.310Z,2.17
2023-05-17T21:53:17.541Z,2.20
2023-05-17T21:58:21.348Z,1.75
2023-05-17T22:03:26.057Z,2.20
2023-05-17T22:08:29.362Z,1.88
2023-05-17T22:13:32.758Z,1.80
2023-05-17T22:18:37.425Z,1.90
2023-05-17T22:23:42.134Z,1.95
2023-05-17T22:28:45.346Z,2.20
2023-05-17T22:33:50.555Z,1.95
2023-05-17T22:38:53.742Z,2.22
2023-05-17T22:43:56.933Z,3.35
2023-05-17T22:49:01.698Z,2.42
2023-05-17T22:54:05.033Z,2.08
2023-05-17T22:59:08.236Z,2.20
2023-05-17T23:04:12.828Z,2.53
2023-05-17T23:09:17.470Z,2.03
2023-05-17T23:14:21.776Z,2.72
2023-05-17T23:19:26.418Z,2.17
2023-05-17T23:24:29.684Z,2.63
2023-05-17T23:29:33.848Z,2.13
2023-05-17T23:34:38.385Z,2.80
2023-05-17T23:39:41.457Z,2.55
2023-05-17T23:44:45.788Z,2.47
2023-05-17T23:49:50.323Z,2.45
2023-05-17T23:54:57.377Z,2.35
